Time;durP1;ratioP1;P1;durP2;ratioP2;P2;SDS_P1;SDS_P2;PMS_P1;PMS_P2;Temp;Humidity;BMP_temperature;BMP_pressure;BME280_temperature;BME280_humidity;BME280_pressure;Samples;Min_cycle;Max_cycle;Signal;HPM_P1;HPM_P2
2022/04/04 00:00:12;;;;;;;8.93;2.85;;;2.80;99.90;;;;;;5092886;28;20046;-81
2022/04/04 00:02:38;;;;;;;9.02;3.20;;;2.70;99.90;;;;;;5090408;28;20044;-81
2022/04/04 00:05:05;;;;;;;9.60;3.22;;;2.70;99.90;;;;;;5091058;28;20032;-81
2022/04/04 00:07:31;;;;;;;5.88;2.78;;;2.70;99.90;;;;;;5091113;28;20041;-81
2022/04/04 00:09:56;;;;;;;8.40;2.95;;;2.70;99.90;;;;;;5089859;28;20045;-81
2022/04/04 00:12:22;;;;;;;6.72;3.15;;;2.60;99.90;;;;;;5088535;28;20041;-81
2022/04/04 00:14:48;;;;;;;7.10;3.33;;;2.60;99.90;;;;;;5090849;28;20040;-81
2022/04/04 00:17:14;;;;;;;9.25;3.03;;;2.70;99.90;;;;;;5097086;28;20096;-81
2022/04/04 00:19:39;;;;;;;7.68;3.38;;;2.60;99.90;;;;;;5108960;28;20047;-81
2022/04/04 00:22:05;;;;;;;5.65;2.80;;;2.50;99.90;;;;;;5111893;28;20028;-82
2022/04/04 00:24:31;;;;;;;10.30;3.38;;;2.40;99.90;;;;;;5110144;28;20048;-82
2022/04/04 00:26:57;;;;;;;10.82;2.90;;;2.40;99.90;;;;;;5110620;28;20040;-81
2022/04/04 00:29:23;;;;;;;10.07;3.50;;;2.60;99.90;;;;;;5109705;28;20514;-81
2022/04/04 00:31:48;;;;;;;6.50;2.95;;;2.60;99.90;;;;;;5109714;28;20508;-81
2022/04/04 00:34:14;;;;;;;6.32;3.80;;;2.50;99.90;;;;;;5090929;28;20064;-81
2022/04/04 00:36:40;;;;;;;7.65;3.47;;;2.60;99.90;;;;;;5110086;28;20075;-81
2022/04/04 00:39:06;;;;;;;7.45;3.97;;;2.60;99.90;;;;;;5081752;28;20082;-82
2022/04/04 00:41:31;;;;;;;7.57;3.40;;;2.70;99.90;;;;;;5088707;28;20047;-81
2022/04/04 00:43:57;;;;;;;7.95;3.92;;;2.80;99.90;;;;;;5089018;28;20049;-81
2022/04/04 00:46:23;;;;;;;8.15;3.45;;;2.80;99.90;;;;;;5092190;28;20403;-81
2022/04/04 00:48:48;;;;;;;8.45;3.72;;;2.70;99.90;;;;;;5106428;28;20441;-81
2022/04/04 00:51:15;;;;;;;10.63;4.20;;;2.70;99.90;;;;;;5102636;28;20048;-81
2022/04/04 00:53:41;;;;;;;9.05;3.75;;;2.80;99.90;;;;;;5096905;28;20054;-82
2022/04/04 00:56:08;;;;;;;6.50;3.70;;;3.70;99.90;;;;;;5111346;28;20119;-82
2022/04/04 00:58:37;;;;;;;5.95;3.33;;;2.80;99.90;;;;;;5111342;28;20044;-81
2022/04/04 01:01:04;;;;;;;6.97;3.88;;;2.80;99.90;;;;;;5109394;28;20101;-81
2022/04/04 01:03:29;;;;;;;12.65;3.92;;;2.90;99.90;;;;;;5108919;28;20055;-80
2022/04/04 01:05:57;;;;;;;11.98;4.70;;;2.90;99.90;;;;;;5110121;28;20092;-80
2022/04/04 01:08:23;;;;;;;11.50;4.47;;;2.90;99.90;;;;;;5092521;28;20044;-80
2022/04/04 01:10:49;;;;;;;9.50;4.80;;;2.80;99.90;;;;;;5089197;28;20040;-80
2022/04/04 01:13:15;;;;;;;9.52;5.53;;;2.80;99.90;;;;;;5090366;28;20260;-80
2022/04/04 01:15:41;;;;;;;7.15;3.78;;;2.80;99.90;;;;;;5089555;28;20085;-80
2022/04/04 01:18:08;;;;;;;9.45;5.15;;;2.80;99.90;;;;;;5089412;28;20036;-81
2022/04/04 01:20:35;;;;;;;9.82;5.53;;;2.90;99.90;;;;;;5089661;28;20041;-81
2022/04/04 01:23:01;;;;;;;10.07;5.30;;;2.90;99.90;;;;;;5089549;28;20045;-81
2022/04/04 01:25:32;;;;;;;10.02;5.32;;;2.90;99.90;;;;;;5098692;28;20035;-80
2022/04/04 01:27:59;;;;;;;10.10;5.78;;;2.90;99.90;;;;;;5087565;28;20051;-80
2022/04/04 01:30:25;;;;;;;10.55;6.72;;;3.00;99.90;;;;;;5087004;28;20053;-81
2022/04/04 01:32:51;;;;;;;11.13;5.57;;;3.00;99.90;;;;;;5087051;28;20099;-81
2022/04/04 01:35:19;;;;;;;14.77;5.93;;;3.20;99.90;;;;;;5096825;28;20096;-81
2022/04/04 01:37:45;;;;;;;13.63;6.90;;;3.30;99.90;;;;;;5105144;28;20552;-81
2022/04/04 01:40:11;;;;;;;11.02;6.05;;;3.30;99.90;;;;;;5084881;28;20040;-81
2022/04/04 01:42:38;;;;;;;12.73;6.82;;;3.30;99.90;;;;;;5176087;22;20033;-86
2022/04/04 01:45:08;;;;;;;10.27;5.60;;;3.40;99.90;;;;;;5008529;28;20053;-87
2022/04/04 01:47:34;;;;;;;12.10;6.65;;;3.40;99.90;;;;;;5039631;28;20481;-86
2022/04/04 01:50:02;;;;;;;10.82;6.53;;;3.20;99.90;;;;;;5040538;28;20042;-87
2022/04/04 01:52:28;;;;;;;12.65;7.03;;;3.60;99.90;;;;;;5041043;28;20052;-87
2022/04/04 01:54:54;;;;;;;18.17;7.95;;;3.40;99.90;;;;;;5037345;28;20377;-88
2022/04/04 01:57:20;;;;;;;13.55;8.63;;;3.20;99.90;;;;;;5036524;28;20042;-86
2022/04/04 01:59:46;;;;;;;15.45;6.95;;;3.40;99.90;;;;;;5037345;28;20052;-87
2022/04/04 02:02:12;;;;;;;13.48;7.65;;;3.50;99.90;;;;;;5019246;28;20120;-88
2022/04/04 02:04:38;;;;;;;13.98;8.38;;;3.60;99.90;;;;;;5037011;28;20069;-86
2022/04/04 02:07:05;;;;;;;15.10;8.38;;;3.60;99.90;;;;;;5018623;28;20079;-86
2022/04/04 02:09:34;;;;;;;17.30;10.95;;;3.60;99.90;;;;;;5035244;28;20067;-88
2022/04/04 02:12:00;;;;;;;13.23;7.75;;;3.60;99.90;;;;;;5036836;28;20053;-86
2022/04/04 02:14:26;;;;;;;15.90;9.25;;;3.60;99.90;;;;;;5036750;28;20056;-87
2022/04/04 02:16:52;;;;;;;13.15;7.75;;;3.60;99.90;;;;;;5036705;28;20096;-86
2022/04/04 02:19:17;;;;;;;17.52;9.07;;;3.70;99.90;;;;;;5035209;28;20045;-87
2022/04/04 02:21:44;;;;;;;18.17;8.43;;;3.70;99.90;;;;;;5036355;28;20435;-86
2022/04/04 02:24:10;;;;;;;16.00;9.32;;;3.80;99.90;;;;;;5035698;28;20391;-87
2022/04/04 02:26:36;;;;;;;17.33;9.93;;;4.10;99.90;;;;;;5036403;28;20125;-87
2022/04/04 02:29:02;;;;;;;15.23;9.45;;;3.70;99.90;;;;;;5036018;28;20125;-88
2022/04/04 02:31:28;;;;;;;13.00;9.07;;;3.70;99.90;;;;;;5034668;28;20050;-86
2022/04/04 02:33:53;;;;;;;17.30;10.50;;;3.80;99.90;;;;;;5035587;28;20124;-87
2022/04/04 02:36:22;;;;;;;12.95;8.80;;;4.10;99.90;;;;;;5035705;28;20053;-87
2022/04/04 02:38:48;;;;;;;13.00;8.88;;;3.90;99.90;;;;;;5036070;28;20095;-87
2022/04/04 02:41:14;;;;;;;13.77;8.50;;;3.90;99.90;;;;;;5034208;28;20049;-87
2022/04/04 02:43:40;;;;;;;18.95;10.38;;;4.50;99.90;;;;;;5035479;28;20064;-87
2022/04/04 02:46:08;;;;;;;16.33;10.13;;;3.90;99.90;;;;;;5035222;28;20081;-87
2022/04/04 02:48:35;;;;;;;21.05;12.00;;;4.00;99.90;;;;;;5035637;28;20100;-86
2022/04/04 02:51:00;;;;;;;16.13;8.98;;;3.90;99.90;;;;;;5035882;28;20044;-88
2022/04/04 02:53:26;;;;;;;19.85;11.55;;;3.90;99.90;;;;;;5035397;28;20115;-87
2022/04/04 02:58:35;;;;;;;16.90;10.05;;;3.90;99.90;;;;;;5034266;28;20076;-87
2022/04/04 03:01:03;;;;;;;19.25;9.73;;;3.90;99.90;;;;;;5034753;28;20544;-87
2022/04/04 03:03:29;;;;;;;20.38;10.77;;;3.90;99.90;;;;;;5034845;28;20052;-87
2022/04/04 03:05:57;;;;;;;18.83;9.95;;;4.00;99.90;;;;;;5033987;28;20124;-86
2022/04/04 03:08:23;;;;;;;21.40;11.25;;;4.00;99.90;;;;;;5035099;28;20045;-86
2022/04/04 03:10:48;;;;;;;14.82;9.23;;;4.00;99.90;;;;;;5035639;28;20405;-87
2022/04/04 03:13:14;;;;;;;16.75;9.95;;;4.10;99.90;;;;;;5034798;28;20037;-88
2022/04/04 03:15:40;;;;;;;17.85;10.75;;;4.10;99.90;;;;;;5033765;28;20395;-87
2022/04/04 03:18:07;;;;;;;24.08;9.88;;;4.20;99.90;;;;;;5035701;28;20179;-88
2022/04/04 03:20:33;;;;;;;21.27;11.38;;;4.30;99.90;;;;;;5020795;28;20420;-88
2022/04/04 03:23:02;;;;;;;17.70;10.27;;;4.30;99.90;;;;;;5040339;28;20373;-86
2022/04/04 03:25:28;;;;;;;20.65;11.15;;;4.30;99.90;;;;;;5040208;28;20061;-86
2022/04/04 03:27:53;;;;;;;20.77;11.38;;;4.40;99.90;;;;;;5040945;28;20064;-87
2022/04/04 03:30:25;;;;;;;18.02;8.60;;;4.40;99.90;;;;;;5048762;28;20033;-87
2022/04/04 03:32:51;;;;;;;18.27;10.80;;;4.50;99.90;;;;;;5058238;28;20024;-88
2022/04/04 03:35:18;;;;;;;19.27;10.88;;;4.40;99.90;;;;;;5057568;28;20080;-87
2022/04/04 03:37:49;;;;;;;20.52;11.10;;;4.50;99.90;;;;;;5058292;28;20032;-87
2022/04/04 03:40:16;;;;;;;30.30;13.40;;;4.60;99.90;;;;;;5044428;28;20045;-87
2022/04/04 03:42:43;;;;;;;21.20;10.55;;;4.60;99.90;;;;;;5033704;28;20124;-88
2022/04/04 03:45:14;;;;;;;18.48;10.43;;;4.50;99.90;;;;;;5033647;28;20042;-87
2022/04/04 03:47:41;;;;;;;22.50;11.57;;;4.70;99.90;;;;;;5035103;28;20053;-86
2022/04/04 03:50:16;;;;;;;21.30;10.43;;;4.70;99.90;;;;;;5032775;28;20072;-87
2022/04/04 03:52:43;;;;;;;19.35;10.77;;;5.40;99.90;;;;;;5034461;28;20065;-87
2022/04/04 03:55:11;;;;;;;15.93;9.27;;;4.70;99.90;;;;;;5033520;28;20408;-86
2022/04/04 03:57:39;;;;;;;19.85;11.35;;;4.80;99.90;;;;;;5033799;28;20546;-87
2022/04/04 04:00:05;;;;;;;24.98;11.60;;;4.90;99.90;;;;;;5016314;28;20104;-87
2022/04/04 04:02:32;;;;;;;21.65;11.05;;;4.80;99.90;;;;;;5034216;28;20045;-88
2022/04/04 04:04:57;;;;;;;17.25;10.43;;;4.40;99.90;;;;;;5033267;28;20053;-87
2022/04/04 04:07:25;;;;;;;20.45;11.35;;;4.90;99.90;;;;;;5034573;28;20555;-87
2022/04/04 04:09:52;;;;;;;22.35;10.13;;;4.80;99.90;;;;;;5034856;28;20061;-87
2022/04/04 04:12:18;;;;;;;17.73;10.82;;;4.70;99.90;;;;;;5034370;28;20128;-87
2022/04/04 04:14:44;;;;;;;18.35;11.57;;;4.80;99.90;;;;;;5035669;28;20029;-87
2022/04/04 04:17:13;;;;;;;23.73;11.60;;;4.70;99.90;;;;;;5038111;28;20136;-86
2022/04/04 04:22:23;;;;;;;20.75;12.45;;;4.60;99.90;;;;;;5034942;28;20132;-87
2022/04/04 04:24:49;;;;;;;22.38;10.05;;;4.70;99.90;;;;;;5033326;28;20084;-87
2022/04/04 04:27:16;;;;;;;21.63;10.13;;;4.70;99.90;;;;;;5034373;28;20523;-88
2022/04/04 04:29:41;;;;;;;19.38;10.30;;;5.00;99.90;;;;;;5034492;28;20093;-88
2022/04/04 04:32:10;;;;;;;18.17;11.52;;;4.70;99.90;;;;;;5033750;28;20085;-87
2022/04/04 04:34:36;;;;;;;19.80;10.35;;;4.70;99.90;;;;;;5034382;28;20046;-86
2022/04/04 04:37:02;;;;;;;18.50;10.10;;;4.70;99.90;;;;;;5033025;28;20458;-87
2022/04/04 04:39:28;;;;;;;25.58;12.23;;;4.80;99.90;;;;;;5034082;28;20038;-87
2022/04/04 04:42:01;;;;;;;21.70;11.52;;;4.70;99.90;;;;;;5049465;28;20033;-86
2022/04/04 04:44:27;;;;;;;23.52;11.88;;;4.70;99.90;;;;;;5053550;28;20045;-87
2022/04/04 04:46:53;;;;;;;17.65;10.45;;;4.70;99.90;;;;;;5056277;28;20106;-87
2022/04/04 04:49:19;;;;;;;20.42;10.55;;;4.50;99.90;;;;;;5057384;28;20049;-87
2022/04/04 04:51:44;;;;;;;24.80;11.20;;;4.80;99.90;;;;;;5057652;28;20140;-88
2022/04/04 04:54:10;;;;;;;20.30;11.48;;;4.80;99.90;;;;;;5057173;28;20045;-86
2022/04/04 04:56:37;;;;;;;16.88;10.00;;;4.70;99.90;;;;;;5055566;28;20049;-87
2022/04/04 04:59:03;;;;;;;21.33;11.65;;;4.70;99.90;;;;;;5057681;28;20048;-87
2022/04/04 05:01:33;;;;;;;29.05;13.55;;;4.70;99.90;;;;;;5056177;28;20049;-87
2022/04/04 05:03:59;;;;;;;16.20;10.05;;;4.70;99.90;;;;;;5057242;28;20052;-86
2022/04/04 05:06:24;;;;;;;26.65;10.98;;;4.80;99.90;;;;;;5056524;28;20086;-87
2022/04/04 05:08:50;;;;;;;23.10;12.35;;;4.70;99.90;;;;;;5056688;28;20052;-87
2022/04/04 05:11:15;;;;;;;22.98;12.55;;;4.60;99.90;;;;;;5056151;28;20084;-86
2022/04/04 05:13:42;;;;;;;27.48;11.73;;;4.60;99.90;;;;;;5056389;28;20045;-86
2022/04/04 05:16:10;;;;;;;24.40;13.15;;;4.70;99.90;;;;;;5055081;28;20068;-86
2022/04/04 05:18:36;;;;;;;14.20;8.27;;;4.60;99.90;;;;;;5056986;28;20649;-84
2022/04/04 05:21:03;;;;;;;22.98;10.93;;;4.60;99.90;;;;;;5055151;28;20048;-84
2022/04/04 05:24:14;;;;;;;21.73;11.93;;;4.60;99.90;;;;;;5070616;28;20036;-86
2022/04/04 05:26:40;;;;;;;25.05;11.57;;;4.50;99.90;;;;;;5080237;28;20064;-86
2022/04/04 05:29:06;;;;;;;25.13;12.27;;;4.50;99.90;;;;;;5080058;28;20037;-86
2022/04/04 05:31:32;;;;;;;22.33;11.98;;;4.50;99.90;;;;;;5080050;28;20048;-85
2022/04/04 05:33:59;;;;;;;25.55;13.60;;;4.50;99.90;;;;;;5050497;28;20531;-85
2022/04/04 05:36:27;;;;;;;22.65;11.18;;;4.50;99.90;;;;;;5057020;28;20045;-85
2022/04/04 05:38:52;;;;;;;28.67;12.45;;;4.40;99.90;;;;;;5055411;28;20053;-85
2022/04/04 05:41:18;;;;;;;20.98;12.50;;;4.60;99.90;;;;;;5038270;28;20056;-86
2022/04/04 05:43:44;;;;;;;24.60;11.50;;;4.50;99.90;;;;;;5038570;28;20135;-87
2022/04/04 05:46:19;;;;;;;26.15;13.95;;;4.60;99.90;;;;;;5056421;28;20041;-85
2022/04/04 05:48:45;;;;;;;25.63;14.38;;;4.60;99.90;;;;;;5056427;28;20044;-85
2022/04/04 05:51:16;;;;;;;29.17;13.25;;;4.50;99.90;;;;;;5057374;28;20060;-84
2022/04/04 05:53:42;;;;;;;30.30;12.35;;;4.50;99.90;;;;;;5055930;28;20044;-86
2022/04/04 05:56:08;;;;;;;22.85;13.30;;;4.60;99.90;;;;;;5056856;28;20099;-86
2022/04/04 05:58:34;;;;;;;26.73;12.32;;;4.60;99.90;;;;;;5054307;28;20395;-86
2022/04/04 06:01:00;;;;;;;30.40;15.13;;;4.70;99.90;;;;;;5054833;28;20132;-86
2022/04/04 06:03:26;;;;;;;25.88;13.85;;;4.50;99.90;;;;;;5055810;28;20105;-86
2022/04/04 06:05:52;;;;;;;24.77;11.57;;;4.50;99.90;;;;;;5055196;28;20079;-86
2022/04/04 06:08:18;;;;;;;24.27;12.60;;;4.50;99.90;;;;;;5055630;28;20041;-86
2022/04/04 06:10:47;;;;;;;24.35;13.77;;;4.50;99.90;;;;;;5055562;28;20554;-86
2022/04/04 06:13:15;;;;;;;30.95;16.73;;;4.50;99.90;;;;;;5055876;28;20064;-87
2022/04/04 06:15:42;;;;;;;23.48;13.25;;;4.40;99.90;;;;;;5054578;28;20045;-86
2022/04/04 06:18:08;;;;;;;29.15;14.02;;;4.40;99.90;;;;;;5054657;28;20037;-84
2022/04/04 06:20:35;;;;;;;29.13;16.65;;;4.50;99.90;;;;;;5055858;28;20352;-87
2022/04/04 06:23:00;;;;;;;26.63;15.15;;;4.40;99.90;;;;;;5053824;28;20052;-85
2022/04/04 06:25:26;;;;;;;32.25;16.52;;;4.40;99.90;;;;;;5055910;28;20400;-84
2022/04/04 06:27:52;;;;;;;26.48;14.88;;;4.40;99.90;;;;;;5055796;28;20045;-86
2022/04/04 06:30:18;;;;;;;31.23;16.08;;;4.40;99.90;;;;;;5055687;28;20045;-86
2022/04/04 06:32:44;;;;;;;32.58;18.67;;;4.40;99.90;;;;;;5056579;28;20041;-87
2022/04/04 06:35:11;;;;;;;30.52;16.98;;;4.40;99.90;;;;;;5055467;28;20167;-86
2022/04/04 06:37:36;;;;;;;29.17;14.02;;;4.40;99.90;;;;;;5054408;28;20051;-85
2022/04/04 06:40:04;;;;;;;44.47;19.65;;;4.40;99.90;;;;;;5053938;28;20391;-85
2022/04/04 06:42:31;;;;;;;32.47;15.77;;;4.40;99.90;;;;;;5054695;28;20037;-85
2022/04/04 06:44:59;;;;;;;26.77;14.80;;;4.40;99.90;;;;;;5054196;28;20056;-86
2022/04/04 06:47:26;;;;;;;18.08;12.77;;;4.40;99.90;;;;;;5053638;28;20115;-85
2022/04/04 06:50:00;;;;;;;27.33;14.25;;;4.50;99.90;;;;;;5054433;28;20048;-86
2022/04/04 06:52:26;;;;;;;26.48;14.60;;;4.90;99.90;;;;;;5056469;28;20041;-86
2022/04/04 06:54:53;;;;;;;29.05;16.45;;;4.50;99.90;;;;;;5055078;28;20045;-86
2022/04/04 06:57:19;;;;;;;26.38;13.43;;;4.40;99.90;;;;;;5055989;28;20044;-86
2022/04/04 06:59:45;;;;;;;26.85;16.42;;;4.70;99.90;;;;;;5054763;28;20048;-86
2022/04/04 07:02:11;;;;;;;22.85;14.07;;;4.70;99.90;;;;;;5056113;28;20052;-87
2022/04/04 07:04:37;;;;;;;20.05;11.85;;;4.40;99.90;;;;;;5045781;28;20481;-86
2022/04/04 07:07:04;;;;;;;25.92;13.98;;;4.40;99.90;;;;;;5033958;28;20473;-86
2022/04/04 07:09:33;;;;;;;28.08;16.23;;;4.90;99.90;;;;;;5035233;28;20045;-86
2022/04/04 07:11:58;;;;;;;21.08;11.70;;;4.50;99.90;;;;;;5040662;28;20054;-87
2022/04/04 07:14:52;;;;;;;26.15;15.73;;;4.50;99.90;;;;;;5043624;28;20049;-86
2022/04/04 07:17:18;;;;;;;20.20;12.50;;;4.50;99.90;;;;;;5037789;28;20060;-86
2022/04/04 07:19:47;;;;;;;21.13;12.45;;;4.50;99.90;;;;;;5034671;28;20045;-86
2022/04/04 07:22:14;;;;;;;28.20;14.50;;;4.50;99.90;;;;;;5035427;28;20060;-86
2022/04/04 07:24:40;;;;;;;26.38;12.57;;;4.50;99.90;;;;;;5040553;28;20120;-86
2022/04/04 07:27:06;;;;;;;21.60;11.30;;;5.00;99.90;;;;;;5052884;28;20061;-87
2022/04/04 07:29:31;;;;;;;19.33;11.55;;;4.50;99.90;;;;;;5055869;28;20097;-85
2022/04/04 07:31:57;;;;;;;22.67;13.02;;;4.70;99.90;;;;;;5054160;28;20105;-87
2022/04/04 07:34:22;;;;;;;26.30;14.25;;;5.00;99.90;;;;;;5037139;28;20049;-86
2022/04/04 07:36:48;;;;;;;27.73;14.95;;;4.60;99.90;;;;;;5019177;28;20047;-87
2022/04/04 07:39:17;;;;;;;24.52;12.52;;;4.60;99.90;;;;;;5035007;28;20053;-85
2022/04/04 07:41:45;;;;;;;19.65;12.27;;;4.70;99.90;;;;;;5016784;28;20037;-85
2022/04/04 07:44:11;;;;;;;21.65;11.65;;;4.70;99.90;;;;;;5033435;28;20475;-86
2022/04/04 07:46:37;;;;;;;19.55;13.20;;;4.70;99.90;;;;;;5033866;28;20128;-85
2022/04/04 07:49:02;;;;;;;26.98;15.05;;;4.80;99.90;;;;;;5033564;28;20053;-86
2022/04/04 07:51:28;;;;;;;27.85;14.93;;;4.80;99.90;;;;;;5034063;28;20053;-86
2022/04/04 07:53:59;;;;;;;26.80;12.95;;;4.80;99.90;;;;;;5000282;28;20057;-86
2022/04/04 07:56:32;;;;;;;20.55;12.95;;;4.90;99.90;;;;;;5034181;28;20037;-86
2022/04/04 07:59:10;;;;;;;;;;;;;;;;;;;;;
2022/04/04 08:01:46;;;;;;;18.40;12.30;;;5.60;99.90;;;;;;5029852;28;20054;-85
2022/04/04 08:04:16;;;;;;;22.77;13.68;;;5.20;99.90;;;;;;5054873;28;20022;-85
2022/04/04 08:06:51;;;;;;;20.65;12.48;;;5.40;99.90;;;;;;5056726;28;20042;-85
2022/04/04 08:09:17;;;;;;;16.37;9.47;;;5.70;99.90;;;;;;5057206;28;20037;-86
2022/04/04 08:11:45;;;;;;;18.17;8.43;;;4.60;99.90;;;;;;5056279;28;20330;-85
2022/04/04 08:14:11;;;;;;;14.05;9.10;;;5.60;99.90;;;;;;5055907;28;20045;-85
2022/04/04 08:16:37;;;;;;;17.58;10.15;;;5.00;99.90;;;;;;5055259;28;20040;-85
2022/04/04 08:19:13;;;;;;;13.95;9.43;;;5.20;99.90;;;;;;5050170;28;20037;-85
2022/04/04 08:21:44;;;;;;;20.80;9.23;;;5.00;99.90;;;;;;5034622;28;20034;-86
2022/04/04 08:24:11;;;;;;;15.80;10.50;;;5.20;99.90;;;;;;5035937;28;20087;-86
2022/04/04 08:26:37;;;;;;;12.93;8.18;;;5.20;99.90;;;;;;5035877;28;20041;-86
2022/04/04 08:29:18;;;;;;;13.73;7.93;;;5.10;99.90;;;;;;5040677;28;20454;-85
2022/04/04 08:31:44;;;;;;;12.70;6.55;;;5.20;99.90;;;;;;5020208;28;20046;-86
2022/04/04 08:34:10;;;;;;;14.82;6.88;;;5.30;99.90;;;;;;5019242;28;20064;-85
2022/04/04 08:36:35;;;;;;;15.38;7.53;;;5.40;99.90;;;;;;5034864;28;20400;-85
2022/04/04 08:39:01;;;;;;;12.30;6.80;;;5.30;99.90;;;;;;5036222;28;20065;-85
2022/04/04 08:41:34;;;;;;;12.40;6.20;;;5.40;99.90;;;;;;5018278;28;20091;-86
2022/04/04 08:44:01;;;;;;;9.07;6.38;;;5.40;99.90;;;;;;5036956;28;20416;-86
2022/04/04 08:46:28;;;;;;;11.48;5.80;;;5.50;99.90;;;;;;5034888;28;20120;-85
2022/04/04 08:48:58;;;;;;;12.57;6.00;;;5.50;99.90;;;;;;5035605;28;20397;-86
2022/04/04 08:51:25;;;;;;;11.70;5.80;;;5.60;99.90;;;;;;5036526;28;20507;-86
2022/04/04 08:53:53;;;;;;;8.68;4.47;;;6.30;99.90;;;;;;5036524;28;20100;-86
2022/04/04 08:56:26;;;;;;;8.23;4.15;;;5.40;99.90;;;;;;5036445;28;20411;-86
2022/04/04 08:58:53;;;;;;;7.57;4.82;;;6.00;99.90;;;;;;5035824;28;20179;-86
2022/04/04 09:01:20;;;;;;;6.97;3.72;;;5.60;99.90;;;;;;5036371;28;20094;-85
2022/04/04 09:03:52;;;;;;;10.20;4.97;;;5.20;99.90;;;;;;5035621;28;20037;-87
2022/04/04 09:06:18;;;;;;;6.50;2.78;;;5.50;99.90;;;;;;5037178;28;20049;-85
2022/04/04 09:08:51;;;;;;;8.30;3.80;;;5.50;99.90;;;;;;5035247;28;20495;-84
2022/04/04 09:11:19;;;;;;;7.20;3.22;;;6.30;99.90;;;;;;5034693;28;20056;-86
2022/04/04 09:14:03;;;;;;;5.78;3.15;;;6.30;99.90;;;;;;5035806;28;20507;-85
2022/04/04 09:16:41;;;;;;;7.38;3.88;;;5.10;99.90;;;;;;5034593;28;20049;-85
2022/04/04 09:19:06;;;;;;;5.90;3.20;;;5.80;99.90;;;;;;5036342;28;20053;-86
2022/04/04 09:21:33;;;;;;;9.02;3.00;;;5.70;99.90;;;;;;5028633;28;20046;-86
2022/04/04 09:24:07;;;;;;;8.73;3.05;;;5.70;99.90;;;;;;5016315;28;20124;-85
2022/04/04 09:26:40;;;;;;;6.88;2.58;;;5.70;99.90;;;;;;5016036;28;20511;-86
2022/04/04 09:29:20;;;;;;;9.48;2.30;;;5.70;99.90;;;;;;5018201;28;20101;-82
2022/04/04 09:32:05;;;;;;;6.70;2.65;;;5.80;99.90;;;;;;5037274;28;20018;-84
2022/04/04 09:34:53;;;;;;;5.53;2.30;;;5.80;99.90;;;;;;5039925;28;20073;-84
2022/04/04 09:37:21;;;;;;;6.00;3.08;;;5.80;99.90;;;;;;5040511;28;20033;-86
2022/04/04 09:39:49;;;;;;;7.32;3.10;;;5.80;99.90;;;;;;5043834;28;20049;-86
2022/04/04 09:42:19;;;;;;;8.25;2.83;;;5.90;99.90;;;;;;5013799;28;20054;-85
2022/04/04 09:45:24;;;;;;;5.68;2.83;;;5.90;99.90;;;;;;5013101;28;20387;-86
2022/04/04 09:48:06;;;;;;;4.35;2.13;;;6.20;99.90;;;;;;4961050;28;20062;-86
2022/04/04 09:50:46;;;;;;;9.05;2.53;;;5.90;99.90;;;;;;5012904;28;20062;-85
2022/04/04 09:53:23;;;;;;;7.57;2.85;;;5.90;99.90;;;;;;5014363;28;20058;-86
2022/04/04 09:55:52;;;;;;;3.95;2.35;;;6.00;99.90;;;;;;5014403;28;20050;-86
2022/04/04 09:58:22;;;;;;;7.70;2.85;;;6.00;99.90;;;;;;5014448;28;20096;-86
2022/04/04 10:00:49;;;;;;;7.18;3.00;;;6.00;99.90;;;;;;5014710;28;20053;-86
2022/04/04 10:03:16;;;;;;;10.88;3.05;;;6.10;99.90;;;;;;5019066;28;20049;-85
2022/04/04 10:05:46;;;;;;;7.82;2.92;;;6.10;99.90;;;;;;5015436;28;20111;-85
2022/04/04 10:08:17;;;;;;;6.68;2.95;;;6.10;99.90;;;;;;5015405;28;20061;-86
2022/04/04 10:10:44;;;;;;;11.20;3.13;;;6.20;99.90;;;;;;5014611;28;20046;-86
2022/04/04 10:13:14;;;;;;;7.65;3.17;;;6.30;99.90;;;;;;4997594;28;20046;-86
2022/04/04 10:15:40;;;;;;;6.53;2.88;;;6.20;99.90;;;;;;4997722;28;20042;-86
2022/04/04 10:18:06;;;;;;;8.63;2.92;;;6.20;99.90;;;;;;4997709;28;20041;-87
2022/04/04 10:20:33;;;;;;;8.75;3.38;;;6.20;99.90;;;;;;4997182;28;20045;-88
2022/04/04 10:22:59;;;;;;;4.75;2.97;;;6.20;99.90;;;;;;5015117;28;20046;-86
2022/04/04 10:25:29;;;;;;;6.78;2.95;;;6.30;99.90;;;;;;5014876;28;20049;-86
2022/04/04 10:27:59;;;;;;;9.48;2.53;;;6.30;99.90;;;;;;5016601;28;20089;-85
2022/04/04 10:30:40;;;;;;;4.55;2.25;;;6.40;99.90;;;;;;5015347;28;20088;-86
2022/04/04 10:33:18;;;;;;;6.28;2.78;;;6.30;99.90;;;;;;5014411;28;20049;-86
2022/04/04 10:36:00;;;;;;;7.78;2.58;;;6.40;99.90;;;;;;4998531;28;20064;-87
2022/04/04 10:38:38;;;;;;;9.63;3.45;;;6.40;99.90;;;;;;5019364;28;20042;-87
2022/04/04 10:41:15;;;;;;;7.25;2.38;;;6.40;99.90;;;;;;5015740;28;20103;-87
2022/04/04 10:43:45;;;;;;;9.10;3.08;;;7.00;99.90;;;;;;5012687;28;20062;-85
2022/04/04 10:46:13;;;;;;;5.03;2.67;;;6.40;99.90;;;;;;5013624;28;20049;-87
2022/04/04 10:48:45;;;;;;;8.43;2.97;;;6.40;99.90;;;;;;5013864;28;20054;-87
2022/04/04 10:51:17;;;;;;;7.47;3.10;;;6.40;99.90;;;;;;5014782;28;20757;-86
2022/04/04 10:53:44;;;;;;;5.15;2.38;;;6.50;99.90;;;;;;4996630;28;20539;-87
2022/04/04 10:56:17;;;;;;;5.40;3.63;;;6.50;99.90;;;;;;5012955;28;20046;-86
2022/04/04 10:59:13;;;;;;;6.88;3.08;;;6.60;99.90;;;;;;5014795;28;20061;-87
2022/04/04 11:01:40;;;;;;;5.90;2.35;;;6.60;99.90;;;;;;5014535;28;20392;-87
2022/04/04 11:04:06;;;;;;;5.03;2.22;;;6.60;99.90;;;;;;5014839;28;20060;-86
2022/04/04 11:09:26;;;;;;;5.43;2.45;;;6.70;99.90;;;;;;5015739;28;20066;-86
2022/04/04 11:12:28;;;;;;;3.88;1.85;;;7.60;99.90;;;;;;5014807;28;20073;-86
2022/04/04 11:15:08;;;;;;;7.18;3.13;;;6.80;99.90;;;;;;5014825;28;20085;-87
2022/04/04 11:18:00;;;;;;;4.63;2.67;;;6.80;99.90;;;;;;5014184;28;20049;-87
2022/04/04 11:20:32;;;;;;;3.92;2.40;;;6.80;99.90;;;;;;5011557;28;20054;-87
2022/04/04 11:23:34;;;;;;;4.35;1.98;;;6.80;99.90;;;;;;5014138;28;20050;-87
2022/04/04 11:26:03;;;;;;;4.43;1.73;;;6.90;99.90;;;;;;5013267;28;20061;-86
2022/04/04 11:28:38;;;;;;;6.55;2.70;;;7.00;99.90;;;;;;5014128;28;20054;-86
2022/04/04 11:31:17;;;;;;;3.83;1.73;;;7.00;99.90;;;;;;5035102;28;20072;-86
2022/04/04 11:33:54;;;;;;;4.85;1.50;;;7.10;99.90;;;;;;5024783;28;20080;-86
2022/04/04 11:36:52;;;;;;;3.53;1.52;;;7.10;99.90;;;;;;5026602;28;20040;-86
2022/04/04 11:39:19;;;;;;;2.65;1.50;;;7.20;99.90;;;;;;5045418;28;20061;-86
2022/04/04 11:42:14;;;;;;;2.63;1.52;;;7.20;99.90;;;;;;5057693;28;20046;-87
2022/04/04 11:44:48;;;;;;;5.35;1.73;;;7.20;99.90;;;;;;4979927;28;20055;-87
2022/04/04 11:47:21;;;;;;;1.73;1.13;;;7.50;99.90;;;;;;5034876;28;20484;-87
2022/04/04 11:49:47;;;;;;;4.45;1.67;;;7.60;99.90;;;;;;5034039;28;20041;-87
2022/04/04 11:52:36;;;;;;;4.35;1.67;;;7.30;99.90;;;;;;5032082;28;20040;-86
2022/04/04 11:55:07;;;;;;;5.65;1.65;;;7.70;99.90;;;;;;5002699;28;20072;-86
2022/04/04 11:57:36;;;;;;;5.10;2.65;;;7.30;99.90;;;;;;5021164;28;20081;-86
2022/04/04 12:00:33;;;;;;;7.47;2.03;;;7.60;99.90;;;;;;5039485;28;20037;-87
2022/04/04 12:03:43;;;;;;;2.60;1.35;;;7.40;99.90;;;;;;5041409;28;20117;-86
2022/04/04 12:06:12;;;;;;;2.70;1.23;;;6.80;99.90;;;;;;5032167;28;20077;-88
2022/04/04 12:09:00;;;;;;;3.88;1.40;;;8.00;99.90;;;;;;5061653;28;20017;-86
2022/04/04 12:11:29;;;;;;;3.00;1.15;;;7.10;99.90;;;;;;5062265;28;20041;-86
2022/04/04 12:13:59;;;;;;;2.55;1.50;;;7.60;99.90;;;;;;5060639;28;20056;-86
2022/04/04 12:16:47;;;;;;;4.07;1.42;;;7.80;99.90;;;;;;5060996;28;20052;-86
2022/04/04 12:19:19;;;;;;;3.88;1.55;;;7.40;99.90;;;;;;5059873;28;20053;-87
2022/04/04 12:24:55;;;;;;;4.15;1.35;;;7.50;99.90;;;;;;5050254;28;20045;-86
2022/04/04 12:27:24;;;;;;;2.85;1.60;;;7.60;99.90;;;;;;5040183;28;20068;-87
2022/04/04 12:30:16;;;;;;;2.22;1.13;;;7.60;99.90;;;;;;5040439;28;20088;-86
2022/04/04 12:32:41;;;;;;;7.40;2.10;;;7.60;99.90;;;;;;5035974;28;20077;-87
2022/04/04 12:35:08;;;;;;;3.25;1.17;;;7.60;99.90;;;;;;5037631;28;20049;-88
2022/04/04 12:37:42;;;;;;;3.33;1.77;;;7.70;99.90;;;;;;5037438;28;20063;-87
2022/04/04 12:40:22;;;;;;;2.60;1.00;;;7.70;99.90;;;;;;5038000;28;21019;-86
2022/04/04 12:42:50;;;;;;;2.35;0.93;;;7.70;99.90;;;;;;5037100;28;20050;-86
2022/04/04 12:45:18;;;;;;;1.52;0.98;;;8.90;99.90;;;;;;5036551;28;20773;-87
2022/04/04 12:48:00;;;;;;;6.60;1.48;;;7.90;99.90;;;;;;5038720;28;20048;-86
2022/04/04 12:50:40;;;;;;;1.88;0.90;;;7.90;99.90;;;;;;5018583;28;20121;-86
2022/04/04 12:53:08;;;;;;;4.57;1.70;;;8.00;99.90;;;;;;5035166;28;20045;-87
2022/04/04 12:55:38;;;;;;;1.52;0.60;;;8.00;99.90;;;;;;5038010;28;20049;-86
2022/04/04 12:58:19;;;;;;;3.10;1.02;;;8.10;99.90;;;;;;5037466;28;20041;-86
2022/04/04 13:00:45;;;;;;;4.43;2.10;;;8.10;99.90;;;;;;5036631;28;20050;-87
2022/04/04 13:03:18;;;;;;;4.28;1.70;;;8.00;99.90;;;;;;5037765;28;20061;-86
2022/04/04 13:05:48;;;;;;;1.30;0.80;;;8.00;99.90;;;;;;5037252;28;20507;-88
2022/04/04 13:08:19;;;;;;;1.45;0.90;;;8.00;99.90;;;;;;5036873;28;20041;-87
2022/04/04 13:11:03;;;;;;;3.35;1.05;;;8.10;99.90;;;;;;5019240;28;20389;-87